Terminal Aerodrome Forecast
Issued by NWS

Home | Current Version | Previous Version | Text Only | Print | Product List | Glossary On
Versions: 1 2 3 4 5 6 7 8 9 10 11 12 13 14 15 16
000
FTUS42 KMLB 231136
TAFSUA
TAF
KSUA 231136Z 2312/2412 14006KT P6SM FEW050 BKN250
     FM231400 15012KT P6SM VCSH SCT025 BKN040
     FM231900 14013KT P6SM VCTS SCT030CB BKN040
      TEMPO 2319/2323 2SM TSRA BKN025CB
     FM240100 17007KT P6SM VCSH SCT025 BKN035 OVC060
      TEMPO 2401/2404 3SM SHRA BKN020
     FM240900 24003KT P6SM FEW015 SCT060 BKN250=

USA.gov is the U.S. government's official web portal to all federal, state and local government web resources and services.